Terminal Aerodrome Forecast
Issued by NWS

Home | Current Version | Previous Version | Text Only | Print | Product List | Glossary On
Versions: 1 2 3 4 5 6 7 8 9 10 11 12 13 14 15 16 17
000
FTUS42 KMLB 230523
TAFSUA
TAF
KSUA 230523Z 2306/2406 09012G18KT P6SM VCSH SCT025 BKN035 BKN250
     FM231000 08011G16KT P6SM VCSH SCT020 SCT030 BKN250
      TEMPO 2310/2314 SCT015 BKN025
     FM231400 07010KT P6SM VCSH SCT025 SCT150 BKN250
     FM231700 06011KT P6SM VCTS SCT030CB BKN060 BKN250
     FM232200 05009KT P6SM VCSH SCT030 BKN090 BKN250=

USA.gov is the U.S. government's official web portal to all federal, state and local government web resources and services.